Peace River Airport
CYPE : now visible

Airfield :











YOU CAN JOIN US ON...

 
LOGIN :

Register | Disclaimer

   EN    FR    IT 

 









Legend :    VFR   Marginal VFR   IFR   Intensive IFR   Very Intensive IFR
Visi :
Ceiling :
>= 8 km
>= 3000ft
5 to 8 km
1000 to 3000 ft
1500m to 5 km
500 to 1000 ft
800 to 1500m
200 to 500 ft
< 800m
< 200 ft
Symbols :   Thunderstorms  Fog  Heavy snow  Heavy precipitations  Wind > 20 kt






- Airport Elevation : 1873 ft
- IATA code : YPE


CYPE - Peace River

CURRENT METAR :
  • 232200Z 03007KT 360V100 15SM -RA OVC005 06/05 A2950 RMK ST8 SLP010

EXPIRED METARs :
  • 232100Z 04008KT 010V110 8SM -RA OVC005 06/06 A2950 RMK SC8 SLP012
  • 232050Z 06006KT 010V120 8SM -RA OVC007 06/05 A2950 RMK SC8 SLP013
  • 232025Z 04007KT 360V100 8SM -RA OVC010 06/05 A2951 RMK SC8 SLP014
  • 232000Z 05007KT 360V120 8SM -RA FEW003 OVC015 06/05 A2951 RMK SC1SC8 SC TR SLP015

TAF AMD TAF CYPE
Valid from the 23 at 20:00 until the 24 at 07:00 UTC


232058Z 2320/2407 07006KT P6SM -RA OVC010
TEMPO 2320/2407 5SM -RA BR OVC006 RMK NXT FCST BY 240100Z
CZEG FIR / North America



MET'MAP, your aeronautical weather chart ! - Copyright ORBIFLY December 2007 - Disclaimer

ORBIFLY MET'MAP TEAM :

Programming & Development : Alexandra Zaïnal
Concept & original design : Baudouin d'Aumeries
Assistance for programming : Marc-Olivier Méhu
Technical & hardware support : Manuel Goepfert

Contact : metmap@orbifly.com




SOURCES & CREDITS :

   NOAA       Earth
Advisory